sensor_id;sensor_type;location;lat;lon;timestamp;P1;durP1;ratioP1;P2;durP2;ratioP2
59145;SDS011;44928;53.074;6.646;2023-09-12T00:01:41;27.50;;;24.33;;
59145;SDS011;44928;53.074;6.646;2023-09-12T00:04:07;29.10;;;26.08;;
59145;SDS011;44928;53.074;6.646;2023-09-12T00:06:33;28.92;;;25.77;;
59145;SDS011;44928;53.074;6.646;2023-09-12T00:08:59;30.08;;;26.05;;
59145;SDS011;44928;53.074;6.646;2023-09-12T00:11:24;30.80;;;26.73;;
59145;SDS011;44928;53.074;6.646;2023-09-12T00:13:50;28.23;;;25.05;;
59145;SDS011;44928;53.074;6.646;2023-09-12T00:16:17;29.05;;;25.20;;
59145;SDS011;44928;53.074;6.646;2023-09-12T00:18:43;30.20;;;26.98;;
59145;SDS011;44928;53.074;6.646;2023-09-12T00:21:09;28.65;;;25.45;;
59145;SDS011;44928;53.074;6.646;2023-09-12T00:23:35;28.52;;;25.05;;
59145;SDS011;44928;53.074;6.646;2023-09-12T00:26:01;31.10;;;27.70;;
59145;SDS011;44928;53.074;6.646;2023-09-12T00:28:26;28.48;;;24.92;;
59145;SDS011;44928;53.074;6.646;2023-09-12T00:30:52;29.92;;;26.63;;
59145;SDS011;44928;53.074;6.646;2023-09-12T00:33:18;30.67;;;23.98;;
59145;SDS011;44928;53.074;6.646;2023-09-12T00:35:44;30.33;;;27.05;;
59145;SDS011;44928;53.074;6.646;2023-09-12T00:38:10;31.80;;;26.13;;
59145;SDS011;44928;53.074;6.646;2023-09-12T00:40:36;29.10;;;24.73;;
59145;SDS011;44928;53.074;6.646;2023-09-12T00:43:03;30.42;;;27.13;;
59145;SDS011;44928;53.074;6.646;2023-09-12T00:45:29;30.20;;;25.85;;
59145;SDS011;44928;53.074;6.646;2023-09-12T00:47:55;30.60;;;27.27;;
59145;SDS011;44928;53.074;6.646;2023-09-12T00:50:23;31.90;;;27.08;;
59145;SDS011;44928;53.074;6.646;2023-09-12T00:52:51;30.33;;;26.48;;
59145;SDS011;44928;53.074;6.646;2023-09-12T00:55:19;30.05;;;26.38;;
59145;SDS011;44928;53.074;6.646;2023-09-12T00:57:45;31.52;;;27.48;;
59145;SDS011;44928;53.074;6.646;2023-09-12T01:00:12;29.50;;;26.00;;
59145;SDS011;44928;53.074;6.646;2023-09-12T01:02:41;29.48;;;25.52;;
59145;SDS011;44928;53.074;6.646;2023-09-12T01:05:09;31.63;;;27.25;;
59145;SDS011;44928;53.074;6.646;2023-09-12T01:07:36;30.83;;;27.08;;
59145;SDS011;44928;53.074;6.646;2023-09-12T01:10:03;30.83;;;27.52;;
59145;SDS011;44928;53.074;6.646;2023-09-12T01:12:33;29.88;;;25.65;;
59145;SDS011;44928;53.074;6.646;2023-09-12T01:14:59;35.97;;;30.27;;
59145;SDS011;44928;53.074;6.646;2023-09-12T01:17:25;30.58;;;26.58;;
59145;SDS011;44928;53.074;6.646;2023-09-12T01:19:52;31.92;;;27.10;;
59145;SDS011;44928;53.074;6.646;2023-09-12T01:22:21;32.25;;;28.20;;
59145;SDS011;44928;53.074;6.646;2023-09-12T01:25:00;31.25;;;27.50;;
59145;SDS011;44928;53.074;6.646;2023-09-12T01:27:51;33.28;;;29.63;;
59145;SDS011;44928;53.074;6.646;2023-09-12T01:30:20;32.80;;;28.83;;
59145;SDS011;44928;53.074;6.646;2023-09-12T01:32:47;38.53;;;28.45;;
59145;SDS011;44928;53.074;6.646;2023-09-12T01:35:14;33.15;;;29.35;;
59145;SDS011;44928;53.074;6.646;2023-09-12T01:37:40;36.65;;;30.85;;
59145;SDS011;44928;53.074;6.646;2023-09-12T01:40:06;31.05;;;27.73;;
59145;SDS011;44928;53.074;6.646;2023-09-12T01:42:43;31.23;;;27.67;;
59145;SDS011;44928;53.074;6.646;2023-09-12T01:45:12;35.10;;;29.42;;
59145;SDS011;44928;53.074;6.646;2023-09-12T01:47:41;37.83;;;30.25;;
59145;SDS011;44928;53.074;6.646;2023-09-12T01:50:08;42.58;;;33.58;;
59145;SDS011;44928;53.074;6.646;2023-09-12T01:52:38;33.45;;;29.75;;
59145;SDS011;44928;53.074;6.646;2023-09-12T01:55:04;42.75;;;33.20;;
59145;SDS011;44928;53.074;6.646;2023-09-12T01:57:34;34.47;;;29.60;;
59145;SDS011;44928;53.074;6.646;2023-09-12T02:00:01;34.22;;;30.58;;
59145;SDS011;44928;53.074;6.646;2023-09-12T02:02:27;35.42;;;30.90;;
59145;SDS011;44928;53.074;6.646;2023-09-12T02:05:12;34.53;;;30.85;;
59145;SDS011;44928;53.074;6.646;2023-09-12T02:07:44;35.67;;;30.00;;
59145;SDS011;44928;53.074;6.646;2023-09-12T02:10:11;31.83;;;28.38;;
59145;SDS011;44928;53.074;6.646;2023-09-12T02:12:37;34.55;;;30.00;;
59145;SDS011;44928;53.074;6.646;2023-09-12T02:15:03;42.47;;;30.55;;
59145;SDS011;44928;53.074;6.646;2023-09-12T02:17:30;31.52;;;28.15;;
59145;SDS011;44928;53.074;6.646;2023-09-12T02:19:55;34.28;;;29.77;;
59145;SDS011;44928;53.074;6.646;2023-09-12T02:22:21;34.30;;;30.55;;
59145;SDS011;44928;53.074;6.646;2023-09-12T02:24:47;35.67;;;31.60;;
59145;SDS011;44928;53.074;6.646;2023-09-12T02:27:13;37.30;;;31.05;;
59145;SDS011;44928;53.074;6.646;2023-09-12T02:29:39;39.22;;;31.80;;
59145;SDS011;44928;53.074;6.646;2023-09-12T02:32:06;35.95;;;27.98;;
59145;SDS011;44928;53.074;6.646;2023-09-12T02:34:32;33.13;;;29.63;;
59145;SDS011;44928;53.074;6.646;2023-09-12T02:36:58;35.10;;;31.40;;
59145;SDS011;44928;53.074;6.646;2023-09-12T02:39:24;49.70;;;35.50;;
59145;SDS011;44928;53.074;6.646;2023-09-12T02:41:50;44.03;;;35.40;;
59145;SDS011;44928;53.074;6.646;2023-09-12T02:44:16;36.13;;;32.08;;
59145;SDS011;44928;53.074;6.646;2023-09-12T02:46:42;35.83;;;31.83;;
59145;SDS011;44928;53.074;6.646;2023-09-12T02:49:07;36.95;;;31.92;;
59145;SDS011;44928;53.074;6.646;2023-09-12T02:51:33;38.65;;;33.53;;
59145;SDS011;44928;53.074;6.646;2023-09-12T02:54:03;41.85;;;33.08;;
59145;SDS011;44928;53.074;6.646;2023-09-12T02:56:28;70.50;;;39.22;;
59145;SDS011;44928;53.074;6.646;2023-09-12T02:58:55;41.55;;;33.55;;
59145;SDS011;44928;53.074;6.646;2023-09-12T03:01:21;37.88;;;30.85;;
59145;SDS011;44928;53.074;6.646;2023-09-12T03:03:48;39.40;;;33.20;;
59145;SDS011;44928;53.074;6.646;2023-09-12T03:06:15;36.47;;;31.38;;
59145;SDS011;44928;53.074;6.646;2023-09-12T03:08:43;34.53;;;29.98;;
59145;SDS011;44928;53.074;6.646;2023-09-12T03:11:10;34.40;;;29.75;;
59145;SDS011;44928;53.074;6.646;2023-09-12T03:13:39;33.75;;;29.48;;
59145;SDS011;44928;53.074;6.646;2023-09-12T03:16:09;37.53;;;32.75;;
59145;SDS011;44928;53.074;6.646;2023-09-12T03:18:39;32.25;;;28.80;;
59145;SDS011;44928;53.074;6.646;2023-09-12T03:21:05;33.88;;;28.60;;
59145;SDS011;44928;53.074;6.646;2023-09-12T03:23:32;38.20;;;32.70;;
59145;SDS011;44928;53.074;6.646;2023-09-12T03:26:04;35.17;;;31.25;;
59145;SDS011;44928;53.074;6.646;2023-09-12T03:28:31;37.28;;;32.10;;
59145;SDS011;44928;53.074;6.646;2023-09-12T03:31:05;41.80;;;32.38;;
59145;SDS011;44928;53.074;6.646;2023-09-12T03:33:32;36.78;;;32.38;;
59145;SDS011;44928;53.074;6.646;2023-09-12T03:35:58;43.20;;;35.47;;
59145;SDS011;44928;53.074;6.646;2023-09-12T03:38:24;38.80;;;33.58;;
59145;SDS011;44928;53.074;6.646;2023-09-12T03:40:50;39.72;;;33.25;;
59145;SDS011;44928;53.074;6.646;2023-09-12T03:43:15;36.10;;;32.25;;
59145;SDS011;44928;53.074;6.646;2023-09-12T03:45:41;39.10;;;33.65;;
59145;SDS011;44928;53.074;6.646;2023-09-12T03:48:07;38.60;;;33.35;;
59145;SDS011;44928;53.074;6.646;2023-09-12T03:50:33;38.47;;;34.28;;
59145;SDS011;44928;53.074;6.646;2023-09-12T03:52:58;37.47;;;33.00;;
59145;SDS011;44928;53.074;6.646;2023-09-12T03:55:24;36.35;;;32.08;;
59145;SDS011;44928;53.074;6.646;2023-09-12T03:57:50;33.95;;;30.27;;
59145;SDS011;44928;53.074;6.646;2023-09-12T04:00:16;37.70;;;30.85;;
59145;SDS011;44928;53.074;6.646;2023-09-12T04:02:42;32.92;;;29.33;;
59145;SDS011;44928;53.074;6.646;2023-09-12T04:05:08;34.50;;;30.75;;
59145;SDS011;44928;53.074;6.646;2023-09-12T04:07:34;36.90;;;30.30;;
59145;SDS011;44928;53.074;6.646;2023-09-12T04:10:00;42.08;;;32.45;;
59145;SDS011;44928;53.074;6.646;2023-09-12T04:12:26;32.10;;;28.60;;
59145;SDS011;44928;53.074;6.646;2023-09-12T04:14:52;31.05;;;27.65;;
59145;SDS011;44928;53.074;6.646;2023-09-12T04:17:17;42.17;;;32.60;;
59145;SDS011;44928;53.074;6.646;2023-09-12T04:19:43;31.85;;;27.23;;
59145;SDS011;44928;53.074;6.646;2023-09-12T04:22:09;30.75;;;27.50;;
59145;SDS011;44928;53.074;6.646;2023-09-12T04:24:35;33.28;;;29.77;;
59145;SDS011;44928;53.074;6.646;2023-09-12T04:27:01;31.08;;;27.67;;
59145;SDS011;44928;53.074;6.646;2023-09-12T04:29:26;45.15;;;33.67;;
59145;SDS011;44928;53.074;6.646;2023-09-12T04:31:52;32.90;;;29.33;;
59145;SDS011;44928;53.074;6.646;2023-09-12T04:34:24;32.03;;;27.25;;
59145;SDS011;44928;53.074;6.646;2023-09-12T04:36:50;31.95;;;28.50;;
59145;SDS011;44928;53.074;6.646;2023-09-12T04:39:17;32.28;;;28.65;;
59145;SDS011;44928;53.074;6.646;2023-09-12T04:41:43;30.23;;;26.88;;
59145;SDS011;44928;53.074;6.646;2023-09-12T04:44:09;29.73;;;26.50;;
59145;SDS011;44928;53.074;6.646;2023-09-12T04:46:35;33.15;;;28.00;;
59145;SDS011;44928;53.074;6.646;2023-09-12T04:49:01;35.15;;;30.33;;
59145;SDS011;44928;53.074;6.646;2023-09-12T04:51:27;30.25;;;26.95;;
59145;SDS011;44928;53.074;6.646;2023-09-12T04:53:53;31.85;;;28.42;;
59145;SDS011;44928;53.074;6.646;2023-09-12T04:56:18;36.10;;;28.83;;
59145;SDS011;44928;53.074;6.646;2023-09-12T04:58:44;29.45;;;25.58;;
59145;SDS011;44928;53.074;6.646;2023-09-12T05:01:10;33.22;;;28.05;;
59145;SDS011;44928;53.074;6.646;2023-09-12T05:03:36;32.58;;;27.95;;
59145;SDS011;44928;53.074;6.646;2023-09-12T05:06:02;28.92;;;25.25;;
59145;SDS011;44928;53.074;6.646;2023-09-12T05:08:29;29.38;;;26.20;;
59145;SDS011;44928;53.074;6.646;2023-09-12T05:10:55;34.10;;;29.17;;
59145;SDS011;44928;53.074;6.646;2023-09-12T05:13:21;47.33;;;33.42;;
59145;SDS011;44928;53.074;6.646;2023-09-12T05:15:46;34.10;;;29.80;;
59145;SDS011;44928;53.074;6.646;2023-09-12T05:18:12;43.63;;;33.28;;
59145;SDS011;44928;53.074;6.646;2023-09-12T05:20:39;42.60;;;33.83;;
59145;SDS011;44928;53.074;6.646;2023-09-12T05:23:05;42.88;;;33.65;;
59145;SDS011;44928;53.074;6.646;2023-09-12T05:25:30;30.98;;;27.40;;
59145;SDS011;44928;53.074;6.646;2023-09-12T05:27:56;30.25;;;25.33;;
59145;SDS011;44928;53.074;6.646;2023-09-12T05:30:22;30.55;;;25.92;;
59145;SDS011;44928;53.074;6.646;2023-09-12T05:32:48;38.55;;;30.25;;
59145;SDS011;44928;53.074;6.646;2023-09-12T05:35:14;63.40;;;38.53;;
59145;SDS011;44928;53.074;6.646;2023-09-12T05:37:40;72.63;;;41.30;;
59145;SDS011;44928;53.074;6.646;2023-09-12T05:40:06;58.80;;;39.38;;
59145;SDS011;44928;53.074;6.646;2023-09-12T05:42:32;48.80;;;36.55;;
59145;SDS011;44928;53.074;6.646;2023-09-12T05:44:58;62.78;;;41.78;;
59145;SDS011;44928;53.074;6.646;2023-09-12T05:47:23;53.20;;;38.33;;
59145;SDS011;44928;53.074;6.646;2023-09-12T05:49:49;53.97;;;39.35;;
59145;SDS011;44928;53.074;6.646;2023-09-12T05:52:15;104.07;;;45.08;;
59145;SDS011;44928;53.074;6.646;2023-09-12T05:54:41;69.28;;;39.92;;
59145;SDS011;44928;53.074;6.646;2023-09-12T05:57:07;47.17;;;36.53;;
59145;SDS011;44928;53.074;6.646;2023-09-12T05:59:38;177.73;;;46.25;;
59145;SDS011;44928;53.074;6.646;2023-09-12T06:02:04;222.68;;;51.50;;
59145;SDS011;44928;53.074;6.646;2023-09-12T06:04:34;66.13;;;41.78;;
59145;SDS011;44928;53.074;6.646;2023-09-12T06:07:01;53.55;;;39.05;;
59145;SDS011;44928;53.074;6.646;2023-09-12T06:09:27;58.45;;;39.72;;
59145;SDS011;44928;53.074;6.646;2023-09-12T06:11:54;84.20;;;45.28;;
59145;SDS011;44928;53.074;6.646;2023-09-12T06:14:19;55.67;;;39.47;;
59145;SDS011;44928;53.074;6.646;2023-09-12T06:16:45;55.55;;;40.15;;
59145;SDS011;44928;53.074;6.646;2023-09-12T06:19:11;74.85;;;43.17;;
59145;SDS011;44928;53.074;6.646;2023-09-12T06:21:40;56.35;;;38.65;;
59145;SDS011;44928;53.074;6.646;2023-09-12T06:24:08;57.42;;;39.50;;
59145;SDS011;44928;53.074;6.646;2023-09-12T06:26:44;56.30;;;39.35;;
59145;SDS011;44928;53.074;6.646;2023-09-12T06:29:10;57.83;;;39.40;;
59145;SDS011;44928;53.074;6.646;2023-09-12T06:31:36;60.35;;;41.17;;
59145;SDS011;44928;53.074;6.646;2023-09-12T06:34:02;59.50;;;41.50;;
59145;SDS011;44928;53.074;6.646;2023-09-12T06:36:28;59.17;;;39.70;;
59145;SDS011;44928;53.074;6.646;2023-09-12T06:38:55;63.70;;;42.38;;
59145;SDS011;44928;53.074;6.646;2023-09-12T06:41:21;58.53;;;38.58;;
59145;SDS011;44928;53.074;6.646;2023-09-12T06:43:47;58.92;;;40.45;;
59145;SDS011;44928;53.074;6.646;2023-09-12T06:46:13;61.05;;;41.92;;
59145;SDS011;44928;53.074;6.646;2023-09-12T06:48:42;79.45;;;44.35;;
59145;SDS011;44928;53.074;6.646;2023-09-12T06:51:09;61.45;;;40.65;;
59145;SDS011;44928;53.074;6.646;2023-09-12T06:53:35;61.65;;;42.58;;
59145;SDS011;44928;53.074;6.646;2023-09-12T06:56:04;53.83;;;39.78;;
59145;SDS011;44928;53.074;6.646;2023-09-12T06:58:30;55.72;;;40.35;;
59145;SDS011;44928;53.074;6.646;2023-09-12T07:01:06;53.30;;;39.28;;
59145;SDS011;44928;53.074;6.646;2023-09-12T07:03:32;58.80;;;41.97;;
59145;SDS011;44928;53.074;6.646;2023-09-12T07:05:59;55.03;;;39.85;;
59145;SDS011;44928;53.074;6.646;2023-09-12T07:08:25;51.35;;;40.10;;
59145;SDS011;44928;53.074;6.646;2023-09-12T07:10:51;56.40;;;39.72;;
59145;SDS011;44928;53.074;6.646;2023-09-12T07:13:20;57.92;;;40.20;;
59145;SDS011;44928;53.074;6.646;2023-09-12T07:15:47;51.40;;;38.53;;
59145;SDS011;44928;53.074;6.646;2023-09-12T07:18:13;54.15;;;38.83;;
59145;SDS011;44928;53.074;6.646;2023-09-12T07:20:40;51.25;;;37.67;;
59145;SDS011;44928;53.074;6.646;2023-09-12T07:23:06;52.17;;;39.35;;
59145;SDS011;44928;53.074;6.646;2023-09-12T07:25:50;58.00;;;40.03;;
59145;SDS011;44928;53.074;6.646;2023-09-12T07:28:17;47.33;;;36.42;;
59145;SDS011;44928;53.074;6.646;2023-09-12T07:30:47;47.25;;;37.13;;
59145;SDS011;44928;53.074;6.646;2023-09-12T07:33:14;57.28;;;38.38;;
59145;SDS011;44928;53.074;6.646;2023-09-12T07:35:40;48.05;;;36.03;;
59145;SDS011;44928;53.074;6.646;2023-09-12T07:38:05;44.22;;;35.33;;
59145;SDS011;44928;53.074;6.646;2023-09-12T07:40:31;46.90;;;37.15;;
59145;SDS011;44928;53.074;6.646;2023-09-12T07:42:57;64.32;;;39.70;;
59145;SDS011;44928;53.074;6.646;2023-09-12T07:45:23;48.95;;;38.15;;
59145;SDS011;44928;53.074;6.646;2023-09-12T07:47:49;67.32;;;39.90;;
59145;SDS011;44928;53.074;6.646;2023-09-12T07:50:15;47.97;;;36.60;;
59145;SDS011;44928;53.074;6.646;2023-09-12T07:52:41;70.93;;;42.53;;
59145;SDS011;44928;53.074;6.646;2023-09-12T07:55:07;44.95;;;35.80;;
59145;SDS011;44928;53.074;6.646;2023-09-12T07:57:33;59.40;;;41.38;;
59145;SDS011;44928;53.074;6.646;2023-09-12T08:00:00;55.25;;;39.47;;
59145;SDS011;44928;53.074;6.646;2023-09-12T08:02:26;55.75;;;40.78;;
59145;SDS011;44928;53.074;6.646;2023-09-12T08:04:52;64.63;;;41.10;;
59145;SDS011;44928;53.074;6.646;2023-09-12T08:07:20;62.20;;;41.55;;
59145;SDS011;44928;53.074;6.646;2023-09-12T08:09:53;50.55;;;38.78;;
59145;SDS011;44928;53.074;6.646;2023-09-12T08:12:22;63.40;;;42.50;;
59145;SDS011;44928;53.074;6.646;2023-09-12T08:14:50;70.30;;;42.75;;
59145;SDS011;44928;53.074;6.646;2023-09-12T08:17:16;59.63;;;41.03;;
59145;SDS011;44928;53.074;6.646;2023-09-12T08:19:42;54.95;;;39.47;;
59145;SDS011;44928;53.074;6.646;2023-09-12T08:22:09;54.53;;;40.08;;
59145;SDS011;44928;53.074;6.646;2023-09-12T08:24:36;53.78;;;39.90;;
59145;SDS011;44928;53.074;6.646;2023-09-12T08:27:02;54.67;;;39.72;;
59145;SDS011;44928;53.074;6.646;2023-09-12T08:29:29;58.95;;;41.00;;
59145;SDS011;44928;53.074;6.646;2023-09-12T08:31:55;65.05;;;40.97;;
59145;SDS011;44928;53.074;6.646;2023-09-12T08:34:21;49.85;;;37.50;;
59145;SDS011;44928;53.074;6.646;2023-09-12T08:36:47;61.38;;;40.35;;
59145;SDS011;44928;53.074;6.646;2023-09-12T08:39:14;52.20;;;39.80;;
59145;SDS011;44928;53.074;6.646;2023-09-12T08:41:41;53.55;;;39.42;;
59145;SDS011;44928;53.074;6.646;2023-09-12T08:44:08;59.38;;;40.05;;
59145;SDS011;44928;53.074;6.646;2023-09-12T08:46:34;59.70;;;41.35;;
59145;SDS011;44928;53.074;6.646;2023-09-12T08:49:02;58.05;;;41.72;;
59145;SDS011;44928;53.074;6.646;2023-09-12T08:51:31;50.63;;;39.65;;
59145;SDS011;44928;53.074;6.646;2023-09-12T08:53:57;53.58;;;39.13;;
59145;SDS011;44928;53.074;6.646;2023-09-12T08:56:24;53.85;;;40.90;;
59145;SDS011;44928;53.074;6.646;2023-09-12T08:58:50;54.45;;;40.30;;
59145;SDS011;44928;53.074;6.646;2023-09-12T09:01:17;52.13;;;37.92;;
59145;SDS011;44928;53.074;6.646;2023-09-12T09:03:44;50.22;;;38.30;;
59145;SDS011;44928;53.074;6.646;2023-09-12T09:06:11;53.17;;;40.78;;
59145;SDS011;44928;53.074;6.646;2023-09-12T09:08:39;51.90;;;39.20;;
59145;SDS011;44928;53.074;6.646;2023-09-12T09:11:06;56.70;;;40.47;;
59145;SDS011;44928;53.074;6.646;2023-09-12T09:13:32;50.85;;;40.72;;
59145;SDS011;44928;53.074;6.646;2023-09-12T09:16:17;51.08;;;38.63;;
59145;SDS011;44928;53.074;6.646;2023-09-12T09:18:53;47.65;;;37.20;;
59145;SDS011;44928;53.074;6.646;2023-09-12T09:21:21;51.67;;;38.17;;
59145;SDS011;44928;53.074;6.646;2023-09-12T09:23:51;49.38;;;37.05;;
59145;SDS011;44928;53.074;6.646;2023-09-12T09:26:18;45.92;;;36.20;;
59145;SDS011;44928;53.074;6.646;2023-09-12T09:28:44;47.58;;;35.25;;
59145;SDS011;44928;53.074;6.646;2023-09-12T09:31:11;50.42;;;36.80;;
59145;SDS011;44928;53.074;6.646;2023-09-12T09:33:39;47.72;;;35.85;;
59145;SDS011;44928;53.074;6.646;2023-09-12T09:36:06;43.97;;;35.58;;
59145;SDS011;44928;53.074;6.646;2023-09-12T09:38:35;42.85;;;34.95;;
59145;SDS011;44928;53.074;6.646;2023-09-12T09:41:05;44.83;;;35.53;;
59145;SDS011;44928;53.074;6.646;2023-09-12T09:43:31;46.08;;;35.40;;
59145;SDS011;44928;53.074;6.646;2023-09-12T09:45:58;43.38;;;34.60;;
59145;SDS011;44928;53.074;6.646;2023-09-12T09:48:25;46.67;;;36.28;;
59145;SDS011;44928;53.074;6.646;2023-09-12T09:50:52;41.72;;;35.83;;
59145;SDS011;44928;53.074;6.646;2023-09-12T09:53:31;42.65;;;34.08;;
59145;SDS011;44928;53.074;6.646;2023-09-12T09:58:46;42.40;;;33.35;;
59145;SDS011;44928;53.074;6.646;2023-09-12T10:01:20;43.63;;;33.40;;
59145;SDS011;44928;53.074;6.646;2023-09-12T10:03:47;43.67;;;33.22;;
59145;SDS011;44928;53.074;6.646;2023-09-12T10:06:15;43.03;;;33.60;;
59145;SDS011;44928;53.074;6.646;2023-09-12T10:08:43;42.42;;;33.88;;
59145;SDS011;44928;53.074;6.646;2023-09-12T10:11:11;41.30;;;33.78;;
59145;SDS011;44928;53.074;6.646;2023-09-12T10:13:46;45.08;;;35.08;;
59145;SDS011;44928;53.074;6.646;2023-09-12T10:16:16;45.00;;;34.47;;
59145;SDS011;44928;53.074;6.646;2023-09-12T10:18:46;42.88;;;32.88;;
59145;SDS011;44928;53.074;6.646;2023-09-12T10:21:29;43.05;;;35.33;;
59145;SDS011;44928;53.074;6.646;2023-09-12T10:23:57;42.08;;;32.95;;
59145;SDS011;44928;53.074;6.646;2023-09-12T10:26:25;44.17;;;34.40;;
59145;SDS011;44928;53.074;6.646;2023-09-12T10:28:51;42.88;;;34.35;;
59145;SDS011;44928;53.074;6.646;2023-09-12T10:31:17;42.03;;;33.67;;
59145;SDS011;44928;53.074;6.646;2023-09-12T10:33:44;42.28;;;33.50;;
59145;SDS011;44928;53.074;6.646;2023-09-12T10:36:11;36.92;;;31.83;;
59145;SDS011;44928;53.074;6.646;2023-09-12T10:38:42;39.60;;;32.80;;
59145;SDS011;44928;53.074;6.646;2023-09-12T10:41:12;40.05;;;33.72;;
59145;SDS011;44928;53.074;6.646;2023-09-12T10:43:39;39.72;;;32.50;;
59145;SDS011;44928;53.074;6.646;2023-09-12T10:46:07;36.08;;;30.13;;
59145;SDS011;44928;53.074;6.646;2023-09-12T10:48:34;39.13;;;30.95;;
59145;SDS011;44928;53.074;6.646;2023-09-12T10:51:01;36.65;;;30.42;;
59145;SDS011;44928;53.074;6.646;2023-09-12T10:53:30;34.88;;;29.70;;
59145;SDS011;44928;53.074;6.646;2023-09-12T11:01:32;37.85;;;29.80;;
59145;SDS011;44928;53.074;6.646;2023-09-12T11:03:59;35.33;;;29.15;;
59145;SDS011;44928;53.074;6.646;2023-09-12T11:06:45;34.72;;;28.30;;
59145;SDS011;44928;53.074;6.646;2023-09-12T11:11:45;35.15;;;28.48;;
59145;SDS011;44928;53.074;6.646;2023-09-12T11:14:12;34.75;;;29.00;;
59145;SDS011;44928;53.074;6.646;2023-09-12T11:16:38;38.25;;;29.75;;
59145;SDS011;44928;53.074;6.646;2023-09-12T11:21:53;36.13;;;28.77;;
59145;SDS011;44928;53.074;6.646;2023-09-12T11:24:21;34.42;;;27.98;;
59145;SDS011;44928;53.074;6.646;2023-09-12T11:26:56;30.88;;;25.05;;
59145;SDS011;44928;53.074;6.646;2023-09-12T11:29:30;29.70;;;24.25;;
59145;SDS011;44928;53.074;6.646;2023-09-12T11:32:01;33.00;;;26.83;;
59145;SDS011;44928;53.074;6.646;2023-09-12T11:34:29;29.15;;;24.38;;
59145;SDS011;44928;53.074;6.646;2023-09-12T11:37:01;26.52;;;22.33;;
59145;SDS011;44928;53.074;6.646;2023-09-12T11:39:29;26.05;;;21.65;;
59145;SDS011;44928;53.074;6.646;2023-09-12T11:41:57;25.25;;;20.45;;
59145;SDS011;44928;53.074;6.646;2023-09-12T11:44:24;23.05;;;19.33;;
59145;SDS011;44928;53.074;6.646;2023-09-12T11:46:51;25.45;;;19.98;;
59145;SDS011;44928;53.074;6.646;2023-09-12T11:49:18;26.20;;;21.65;;
59145;SDS011;44928;53.074;6.646;2023-09-12T11:51:51;20.58;;;16.17;;
59145;SDS011;44928;53.074;6.646;2023-09-12T11:54:19;22.83;;;17.25;;
59145;SDS011;44928;53.074;6.646;2023-09-12T11:59:21;20.10;;;16.38;;
59145;SDS011;44928;53.074;6.646;2023-09-12T12:01:48;21.90;;;16.33;;
59145;SDS011;44928;53.074;6.646;2023-09-12T12:04:14;19.90;;;15.85;;
59145;SDS011;44928;53.074;6.646;2023-09-12T12:06:40;22.92;;;16.25;;
59145;SDS011;44928;53.074;6.646;2023-09-12T12:09:09;19.50;;;14.30;;
59145;SDS011;44928;53.074;6.646;2023-09-12T12:11:35;20.67;;;16.08;;
59145;SDS011;44928;53.074;6.646;2023-09-12T12:14:12;18.42;;;15.05;;
59145;SDS011;44928;53.074;6.646;2023-09-12T12:16:40;18.35;;;14.40;;
59145;SDS011;44928;53.074;6.646;2023-09-12T12:19:08;18.45;;;13.73;;
59145;SDS011;44928;53.074;6.646;2023-09-12T12:21:39;18.80;;;13.60;;
59145;SDS011;44928;53.074;6.646;2023-09-12T12:24:07;18.75;;;12.48;;
59145;SDS011;44928;53.074;6.646;2023-09-12T12:26:37;18.42;;;13.13;;
59145;SDS011;44928;53.074;6.646;2023-09-12T12:29:05;15.45;;;11.35;;
59145;SDS011;44928;53.074;6.646;2023-09-12T12:31:31;16.58;;;11.00;;
59145;SDS011;44928;53.074;6.646;2023-09-12T12:33:57;15.90;;;11.00;;
59145;SDS011;44928;53.074;6.646;2023-09-12T12:36:24;16.77;;;11.55;;
59145;SDS011;44928;53.074;6.646;2023-09-12T12:38:51;16.63;;;11.32;;
59145;SDS011;44928;53.074;6.646;2023-09-12T12:41:21;19.52;;;11.38;;
59145;SDS011;44928;53.074;6.646;2023-09-12T12:43:52;15.75;;;11.80;;
59145;SDS011;44928;53.074;6.646;2023-09-12T12:46:19;15.07;;;10.07;;
59145;SDS011;44928;53.074;6.646;2023-09-12T12:48:47;13.30;;;9.00;;
59145;SDS011;44928;53.074;6.646;2023-09-12T12:51:13;12.07;;;8.02;;
59145;SDS011;44928;53.074;6.646;2023-09-12T12:53:50;13.15;;;9.38;;
59145;SDS011;44928;53.074;6.646;2023-09-12T12:56:18;15.27;;;10.57;;
59145;SDS011;44928;53.074;6.646;2023-09-12T12:58:50;14.60;;;10.25;;
59145;SDS011;44928;53.074;6.646;2023-09-12T13:01:17;12.75;;;9.00;;
59145;SDS011;44928;53.074;6.646;2023-09-12T13:03:44;14.80;;;9.77;;
59145;SDS011;44928;53.074;6.646;2023-09-12T13:06:10;17.92;;;12.20;;
59145;SDS011;44928;53.074;6.646;2023-09-12T13:08:40;16.75;;;11.75;;
59145;SDS011;44928;53.074;6.646;2023-09-12T13:11:07;14.02;;;10.73;;
59145;SDS011;44928;53.074;6.646;2023-09-12T13:13:33;16.25;;;10.40;;
59145;SDS011;44928;53.074;6.646;2023-09-12T13:15:59;16.13;;;11.68;;
59145;SDS011;44928;53.074;6.646;2023-09-12T13:18:26;15.35;;;10.05;;
59145;SDS011;44928;53.074;6.646;2023-09-12T13:20:51;13.00;;;10.35;;
59145;SDS011;44928;53.074;6.646;2023-09-12T13:23:17;13.20;;;9.07;;
59145;SDS011;44928;53.074;6.646;2023-09-12T13:25:43;14.82;;;10.20;;
59145;SDS011;44928;53.074;6.646;2023-09-12T13:28:09;14.10;;;9.23;;
59145;SDS011;44928;53.074;6.646;2023-09-12T13:30:34;18.17;;;10.25;;
59145;SDS011;44928;53.074;6.646;2023-09-12T13:33:00;12.88;;;8.90;;
59145;SDS011;44928;53.074;6.646;2023-09-12T13:35:26;12.43;;;7.97;;
59145;SDS011;44928;53.074;6.646;2023-09-12T13:37:52;11.68;;;6.80;;
59145;SDS011;44928;53.074;6.646;2023-09-12T13:40:17;16.08;;;7.78;;
59145;SDS011;44928;53.074;6.646;2023-09-12T13:42:45;13.40;;;8.88;;
59145;SDS011;44928;53.074;6.646;2023-09-12T13:45:10;13.07;;;8.75;;
59145;SDS011;44928;53.074;6.646;2023-09-12T13:47:36;14.18;;;8.57;;
59145;SDS011;44928;53.074;6.646;2023-09-12T13:50:03;13.98;;;8.25;;
59145;SDS011;44928;53.074;6.646;2023-09-12T13:52:29;12.35;;;8.38;;
59145;SDS011;44928;53.074;6.646;2023-09-12T13:54:55;12.40;;;7.30;;
59145;SDS011;44928;53.074;6.646;2023-09-12T13:57:21;13.93;;;8.60;;
59145;SDS011;44928;53.074;6.646;2023-09-12T13:59:47;14.10;;;8.68;;
59145;SDS011;44928;53.074;6.646;2023-09-12T14:02:13;12.70;;;7.88;;
59145;SDS011;44928;53.074;6.646;2023-09-12T14:04:39;14.38;;;7.07;;
59145;SDS011;44928;53.074;6.646;2023-09-12T14:07:05;12.15;;;7.97;;
59145;SDS011;44928;53.074;6.646;2023-09-12T14:09:31;12.77;;;8.10;;
59145;SDS011;44928;53.074;6.646;2023-09-12T14:11:57;11.70;;;7.88;;
59145;SDS011;44928;53.074;6.646;2023-09-12T14:14:22;12.20;;;8.38;;
59145;SDS011;44928;53.074;6.646;2023-09-12T14:16:48;13.40;;;8.85;;
59145;SDS011;44928;53.074;6.646;2023-09-12T14:19:14;13.55;;;8.63;;
59145;SDS011;44928;53.074;6.646;2023-09-12T14:21:40;12.98;;;9.18;;
59145;SDS011;44928;53.074;6.646;2023-09-12T14:24:06;15.60;;;8.90;;
59145;SDS011;44928;53.074;6.646;2023-09-12T14:26:32;15.73;;;9.35;;
59145;SDS011;44928;53.074;6.646;2023-09-12T14:28:58;12.35;;;8.38;;
59145;SDS011;44928;53.074;6.646;2023-09-12T14:31:23;14.10;;;7.95;;
59145;SDS011;44928;53.074;6.646;2023-09-12T14:33:49;13.38;;;7.78;;
59145;SDS011;44928;53.074;6.646;2023-09-12T14:36:17;14.70;;;7.50;;
59145;SDS011;44928;53.074;6.646;2023-09-12T14:38:44;11.55;;;6.95;;
59145;SDS011;44928;53.074;6.646;2023-09-12T14:41:11;13.15;;;8.02;;